Pagrindinis puslapis
METAR-TAF:

METAR-TAF

Oro uostai :

Talkeetna, Aliaska, Jungtinės Amerikos Valstijos

platuma: 62-19-14N, ilguma: 150-05-37W, Aukštis: 109 m

Dabartinis oras

Ataskaita buvo paskelbta 15 minutes, ne 10:53 UTC
Vėjas 12 kt iš Šiaurės Rytų
Temperatūra -6°C
Drėgmė 45%
Slėgis 1001 hPa
Matomumas: 16.1 km
Apsiniaukę ne aukštis 10000 ft

METAR: PATK 261053Z AUTO 04012KT 10SM OVC100 M06/M16 A2956 RMK AO2 SLP016 T10561156 TSNO $

Laikas: 02:08 (11:08 UTC)

Prognozė

Ataskaita buvo paskelbta 5 valandos ir 28 minutes, ne 05:40 UTC
Prognozė galioja nuo 26 metu 06 UTC su 27 metu 06 UTC
Vėjas 11 kt iš Šiaurės/Šiaurės Rytų
Matomumas: 10 km
Su prošvaistėmis ne aukštis 6000 ft
Su prošvaistėmis ne aukštis 10000 ft
Liūtis kaimynystėje
Nuo 26 metu 1600 UTC
Vėjas 8 kt iš Šiaurės/Šiaurės Rytų
Matomumas: 10 km
Mažai debesys ne aukštis 1000 ft

TAF: PATK 260540Z 2606/2706 02011KT P6SM VCSH BKN060 BKN100 FM261600 02008KT P6SM FEW010

Orai ataskaitas ir orų prognozės (METAR, TAF).

turimą stotys yra geltonos ir raudonos taškus žemėlapyje.

Perkelti pele per norėdami pamatyti stoties vardą.

Tada spustelėkite, norėdami matyti oro stebėjimo ir prognozės.

Norėdami pakeisti žemėlapį: spustelėkite ant žalios mygtukų su juodo kryžiaus žemyn,; žalią mygtuką su brūkšneliu, jei norite nutolinti; arba žalių rodyklių gretimoms žemėlapius.


METAR-TAF: